Time;durP1;ratioP1;P1;durP2;ratioP2;P2;SDS_P1;SDS_P2;PMS_P1;PMS_P2;Temp;Humidity;BMP_temperature;BMP_pressure;BME280_temperature;BME280_humidity;BME280_pressure;Samples;Min_cycle;Max_cycle;Signal;HPM_P1;HPM_P2
2023/04/17 00:02:24;;;;;;;70.95;51.92;;;7.50;99.90;;;;;;5041385;28;20049;-74
2023/04/17 00:04:51;;;;;;;69.90;52.17;;;7.50;99.90;;;;;;4981085;28;20502;-74
2023/04/17 00:07:21;;;;;;;72.95;53.20;;;7.50;99.90;;;;;;4976091;28;20479;-74
2023/04/17 00:09:47;;;;;;;72.80;52.42;;;7.50;99.90;;;;;;4974436;28;20040;-74
2023/04/17 00:12:12;;;;;;;64.53;49.88;;;7.50;99.90;;;;;;4987940;28;20432;-74
2023/04/17 00:14:38;;;;;;;66.25;49.75;;;7.60;99.90;;;;;;4963155;28;20052;-74
2023/04/17 00:17:04;;;;;;;62.35;48.95;;;7.60;99.90;;;;;;4985869;28;20236;-74
2023/04/17 00:19:29;;;;;;;63.05;50.75;;;7.60;99.90;;;;;;4970704;28;20130;-74
2023/04/17 00:21:55;;;;;;;63.70;49.10;;;7.60;99.90;;;;;;4970896;28;20047;-74
2023/04/17 00:24:20;;;;;;;57.53;47.85;;;7.50;99.90;;;;;;4986116;28;20058;-74
2023/04/17 00:26:46;;;;;;;58.95;47.58;;;7.50;99.90;;;;;;4985715;28;20035;-74
2023/04/17 00:29:11;;;;;;;58.88;46.72;;;7.50;99.90;;;;;;4962985;28;20050;-74
2023/04/17 00:31:37;;;;;;;54.50;45.92;;;7.50;99.90;;;;;;5074650;28;20129;-74
2023/04/17 00:34:02;;;;;;;56.90;47.72;;;7.50;99.90;;;;;;4968956;28;20054;-74
2023/04/17 00:36:30;;;;;;;59.45;47.42;;;7.50;99.90;;;;;;4986813;28;20046;-74
2023/04/17 00:38:56;;;;;;;61.42;48.35;;;7.50;99.90;;;;;;4984946;28;20168;-74
2023/04/17 00:41:22;;;;;;;60.05;45.75;;;7.50;99.90;;;;;;4954571;28;20051;-74
2023/04/17 00:43:47;;;;;;;60.75;48.88;;;7.50;99.90;;;;;;4962714;28;20053;-74
2023/04/17 00:46:14;;;;;;;61.63;48.92;;;7.50;99.90;;;;;;4986022;28;20039;-74
2023/04/17 00:48:40;;;;;;;58.90;48.17;;;7.50;99.90;;;;;;4987781;28;20042;-74
2023/04/17 00:51:06;;;;;;;61.55;48.83;;;7.50;99.90;;;;;;4955100;28;20050;-74
2023/04/17 00:53:32;;;;;;;65.35;49.22;;;7.40;99.90;;;;;;4958409;28;20557;-74
2023/04/17 00:55:59;;;;;;;61.05;49.25;;;7.40;99.90;;;;;;4988207;28;20043;-74
2023/04/17 00:58:26;;;;;;;60.90;49.42;;;7.40;99.90;;;;;;4976767;28;20069;-74
2023/04/17 01:00:51;;;;;;;58.78;47.50;;;7.40;99.90;;;;;;4974288;28;20046;-74
2023/04/17 01:03:17;;;;;;;60.08;48.85;;;7.40;99.90;;;;;;4976108;28;20045;-74
2023/04/17 01:05:47;;;;;;;57.70;47.58;;;7.50;99.90;;;;;;4970037;28;20039;-74
2023/04/17 01:08:13;;;;;;;67.57;50.95;;;7.50;99.90;;;;;;4978241;28;20036;-74
2023/04/17 01:10:38;;;;;;;58.17;48.00;;;7.50;99.90;;;;;;4982066;28;20123;-74
2023/04/17 01:13:07;;;;;;;64.50;50.33;;;7.50;99.90;;;;;;4957160;28;20121;-74
2023/04/17 01:15:34;;;;;;;60.55;48.42;;;7.50;99.90;;;;;;4953628;28;20042;-74
2023/04/17 01:18:01;;;;;;;59.40;47.65;;;7.50;99.90;;;;;;4970715;28;20046;-74
2023/04/17 01:20:30;;;;;;;58.63;47.65;;;7.50;99.90;;;;;;4965183;28;20042;-74
2023/04/17 01:22:57;;;;;;;62.38;49.30;;;7.50;99.90;;;;;;5067784;28;20118;-74
2023/04/17 01:25:23;;;;;;;62.58;50.17;;;7.50;99.90;;;;;;4963859;28;20510;-74
2023/04/17 01:27:49;;;;;;;65.50;50.63;;;7.50;99.90;;;;;;4971242;28;20043;-74
2023/04/17 01:30:15;;;;;;;66.28;51.47;;;7.50;99.90;;;;;;4977706;28;20078;-74
2023/04/17 01:32:41;;;;;;;71.30;52.78;;;7.40;99.90;;;;;;4969284;28;20074;-74
2023/04/17 01:35:06;;;;;;;68.13;51.85;;;7.50;99.90;;;;;;4959748;28;20038;-74
2023/04/17 01:37:32;;;;;;;67.80;52.00;;;7.50;99.90;;;;;;4952613;28;20498;-74
2023/04/17 01:39:58;;;;;;;69.20;51.28;;;7.50;99.90;;;;;;4978053;28;20043;-74
2023/04/17 01:42:24;;;;;;;68.22;52.85;;;7.50;99.90;;;;;;4983917;28;20057;-74
2023/04/17 01:44:49;;;;;;;70.05;53.08;;;7.40;99.90;;;;;;4951876;28;20506;-74
2023/04/17 01:47:15;;;;;;;78.45;56.63;;;7.40;99.90;;;;;;4972375;28;20051;-74
2023/04/17 01:49:41;;;;;;;73.93;55.42;;;7.50;99.90;;;;;;4990268;28;20032;-74
2023/04/17 01:52:06;;;;;;;71.40;54.97;;;7.50;99.90;;;;;;5067613;28;20037;-74
2023/04/17 01:54:32;;;;;;;70.35;53.15;;;7.50;99.90;;;;;;4966960;28;20035;-74
2023/04/17 01:56:57;;;;;;;75.93;56.22;;;7.50;99.90;;;;;;4988007;28;20046;-74
2023/04/17 01:59:23;;;;;;;77.82;56.20;;;7.50;99.90;;;;;;4980836;28;20410;-74
2023/04/17 02:01:50;;;;;;;78.90;57.10;;;7.50;99.90;;;;;;5057301;28;20038;-74
2023/04/17 02:04:16;;;;;;;82.93;57.65;;;7.50;99.90;;;;;;4964213;28;20041;-74
2023/04/17 02:06:41;;;;;;;81.55;57.65;;;7.50;99.90;;;;;;4972627;28;20129;-74
2023/04/17 02:09:07;;;;;;;75.40;55.35;;;7.50;99.90;;;;;;5052487;28;20129;-74
2023/04/17 02:11:33;;;;;;;85.13;58.13;;;7.50;99.90;;;;;;4950435;28;20065;-74
2023/04/17 02:13:59;;;;;;;83.30;58.45;;;7.50;99.90;;;;;;4954899;28;20085;-74
2023/04/17 02:16:25;;;;;;;79.10;58.65;;;7.50;99.90;;;;;;4967685;28;20453;-74
2023/04/17 02:18:51;;;;;;;84.35;58.40;;;7.50;99.90;;;;;;4982071;28;20058;-74
2023/04/17 02:21:16;;;;;;;86.25;59.03;;;7.50;99.90;;;;;;4970825;28;20047;-74
2023/04/17 02:23:42;;;;;;;90.90;59.35;;;7.50;99.90;;;;;;5038783;28;20039;-74
2023/04/17 02:26:08;;;;;;;95.35;60.72;;;7.50;99.90;;;;;;4966616;28;20051;-73
2023/04/17 02:28:34;;;;;;;83.47;58.28;;;7.50;99.90;;;;;;4971809;28;20551;-74
2023/04/17 02:30:59;;;;;;;92.43;59.97;;;7.50;99.90;;;;;;4959034;28;20067;-74
2023/04/17 02:33:25;;;;;;;97.03;59.05;;;7.50;99.90;;;;;;4956060;28;20477;-74
2023/04/17 02:35:50;;;;;;;86.03;60.38;;;7.50;99.90;;;;;;4971355;28;20035;-74
2023/04/17 02:38:16;;;;;;;96.28;62.40;;;7.50;99.90;;;;;;4971647;28;20046;-74
2023/04/17 02:40:42;;;;;;;112.75;65.78;;;7.50;99.90;;;;;;4963611;28;20490;-74
2023/04/17 02:43:07;;;;;;;87.97;59.33;;;7.50;99.90;;;;;;4970367;28;20449;-74
2023/04/17 02:45:33;;;;;;;92.93;62.35;;;7.50;99.90;;;;;;4958942;28;20552;-74
2023/04/17 02:47:59;;;;;;;91.68;61.10;;;7.50;99.90;;;;;;4955244;28;20530;-74
2023/04/17 02:50:25;;;;;;;96.47;63.50;;;7.50;99.90;;;;;;5014602;28;20087;-74
2023/04/17 02:52:50;;;;;;;92.13;62.10;;;7.60;99.90;;;;;;4977485;28;20064;-74
2023/04/17 02:57:44;;;;;;;87.93;63.00;;;7.50;99.90;;;;;;5038367;23;20047;-75
2023/04/17 03:00:13;;;;;;;100.80;64.18;;;7.50;99.90;;;;;;5053988;28;20500;-75
2023/04/17 03:02:39;;;;;;;101.95;65.63;;;7.50;99.90;;;;;;5048281;28;20042;-75
2023/04/17 03:05:05;;;;;;;92.32;62.15;;;7.60;99.90;;;;;;4977744;28;20035;-75
2023/04/17 03:07:32;;;;;;;106.13;65.90;;;7.50;99.90;;;;;;4995210;28;20106;-74
2023/04/17 03:09:58;;;;;;;97.93;65.32;;;7.50;99.90;;;;;;5020380;28;20072;-74
2023/04/17 03:12:24;;;;;;;93.63;64.47;;;7.60;99.90;;;;;;5070064;28;20495;-74
2023/04/17 03:14:50;;;;;;;92.13;64.43;;;7.60;99.90;;;;;;4953142;28;20041;-75
2023/04/17 03:17:16;;;;;;;94.88;63.88;;;7.60;99.90;;;;;;4944845;28;20039;-75
2023/04/17 03:19:42;;;;;;;90.40;63.78;;;7.60;99.90;;;;;;5031836;28;20396;-75
2023/04/17 03:22:07;;;;;;;98.25;68.22;;;7.60;99.90;;;;;;5075286;28;20037;-75
2023/04/17 03:24:33;;;;;;;83.93;63.83;;;7.60;99.90;;;;;;5001139;28;20062;-75
2023/04/17 03:27:01;;;;;;;90.68;64.32;;;7.60;99.90;;;;;;4949349;28;20035;-75
2023/04/17 03:29:27;;;;;;;84.20;63.92;;;7.70;99.90;;;;;;5013883;28;20496;-75
2023/04/17 03:31:52;;;;;;;95.55;65.40;;;7.60;99.90;;;;;;4955894;28;20050;-75
2023/04/17 03:34:20;;;;;;;81.97;63.13;;;7.60;99.90;;;;;;5049060;28;20039;-75
2023/04/17 03:36:46;;;;;;;91.47;67.80;;;7.60;99.90;;;;;;4976768;28;20494;-75
2023/04/17 03:39:11;;;;;;;85.28;61.03;;;7.60;99.90;;;;;;4997657;28;20051;-75
2023/04/17 03:41:37;;;;;;;88.43;63.28;;;7.60;99.90;;;;;;4955399;28;20045;-74
2023/04/17 03:44:04;;;;;;;83.95;63.00;;;7.60;99.90;;;;;;4973046;28;20099;-75
2023/04/17 03:46:30;;;;;;;91.68;65.53;;;7.70;99.90;;;;;;4979062;28;20046;-74
2023/04/17 03:48:56;;;;;;;93.75;67.40;;;7.70;99.90;;;;;;4987628;28;20085;-74
2023/04/17 03:51:21;;;;;;;91.07;68.00;;;7.60;99.90;;;;;;4981979;28;20039;-74
2023/04/17 03:53:47;;;;;;;88.60;67.95;;;7.60;99.90;;;;;;4949801;28;20039;-74
2023/04/17 03:56:12;;;;;;;87.78;61.75;;;7.60;99.90;;;;;;4960305;28;20121;-74
2023/04/17 03:58:38;;;;;;;83.78;63.35;;;7.70;99.90;;;;;;4982570;28;20060;-75
2023/04/17 04:01:04;;;;;;;81.22;61.60;;;7.70;99.90;;;;;;4978046;28;20237;-75
2023/04/17 04:03:29;;;;;;;81.10;62.45;;;7.70;99.90;;;;;;4944144;28;20401;-75
2023/04/17 04:05:55;;;;;;;80.88;61.55;;;7.70;99.90;;;;;;4963881;28;20046;-75
2023/04/17 04:08:21;;;;;;;79.15;60.38;;;7.70;99.90;;;;;;5018757;28;20501;-74
2023/04/17 04:10:46;;;;;;;85.25;64.28;;;7.70;99.90;;;;;;5032045;28;20203;-74
2023/04/17 04:13:12;;;;;;;79.20;62.65;;;7.70;99.90;;;;;;4999744;28;20406;-74
2023/04/17 04:15:38;;;;;;;82.25;61.13;;;7.60;99.90;;;;;;4965050;28;20510;-74
2023/04/17 04:18:04;;;;;;;79.72;62.47;;;7.60;99.90;;;;;;4953309;28;20153;-74
2023/04/17 04:20:30;;;;;;;79.13;61.85;;;7.70;99.90;;;;;;4952105;29;20052;-74
2023/04/17 04:22:56;;;;;;;83.18;64.85;;;7.60;99.90;;;;;;4952337;28;20046;-74
2023/04/17 04:25:25;;;;;;;79.40;62.22;;;7.60;99.90;;;;;;4986504;28;20092;-74
2023/04/17 04:27:52;;;;;;;84.45;64.90;;;7.70;99.90;;;;;;4969972;28;20237;-74
2023/04/17 04:30:19;;;;;;;79.80;61.35;;;7.70;99.90;;;;;;4971036;28;20035;-74
2023/04/17 04:32:45;;;;;;;76.80;61.05;;;7.70;99.90;;;;;;4969841;28;20384;-75
2023/04/17 04:35:11;;;;;;;76.50;61.08;;;7.80;99.90;;;;;;4985694;28;20042;-75
2023/04/17 04:37:37;;;;;;;78.13;60.47;;;7.70;99.90;;;;;;4976599;28;20043;-75
2023/04/17 04:40:09;;;;;;;80.03;63.75;;;7.70;99.90;;;;;;4953354;28;20375;-75
2023/04/17 04:42:36;;;;;;;81.95;64.32;;;7.70;99.90;;;;;;5003342;28;20046;-75
2023/04/17 04:45:03;;;;;;;78.40;62.30;;;7.70;99.90;;;;;;4966453;28;20091;-75
2023/04/17 04:47:28;;;;;;;75.82;60.35;;;7.70;99.90;;;;;;4972644;28;20160;-75
2023/04/17 04:49:54;;;;;;;88.85;63.60;;;7.70;99.90;;;;;;4990807;28;20121;-75
2023/04/17 04:52:20;;;;;;;84.07;62.28;;;7.70;99.90;;;;;;4960419;28;20039;-75
2023/04/17 04:54:45;;;;;;;89.68;65.93;;;7.70;99.90;;;;;;4956980;28;20088;-75
2023/04/17 04:57:11;;;;;;;84.43;61.85;;;7.70;99.90;;;;;;5035876;28;20054;-75
2023/04/17 04:59:37;;;;;;;79.40;60.03;;;7.70;99.90;;;;;;5011955;28;20047;-75
2023/04/17 05:02:02;;;;;;;85.53;63.00;;;7.60;99.90;;;;;;4958863;28;20436;-75
2023/04/17 05:04:28;;;;;;;78.90;61.38;;;7.70;99.90;;;;;;4990881;28;20048;-75
2023/04/17 05:06:54;;;;;;;80.85;60.80;;;7.60;99.90;;;;;;5006199;28;20049;-75
2023/04/17 05:09:19;;;;;;;77.95;62.17;;;7.60;99.90;;;;;;4963569;28;20046;-74
2023/04/17 05:11:45;;;;;;;72.90;57.42;;;7.60;99.90;;;;;;4970210;28;20038;-75
2023/04/17 05:14:10;;;;;;;78.13;59.60;;;7.60;99.90;;;;;;5011836;28;20480;-75
2023/04/17 05:16:36;;;;;;;76.85;59.55;;;7.60;99.90;;;;;;4958030;28;20050;-75
2023/04/17 05:19:01;;;;;;;74.05;58.47;;;7.60;99.90;;;;;;4978543;28;20042;-74
2023/04/17 05:21:27;;;;;;;71.32;57.90;;;7.60;99.90;;;;;;4975382;28;20487;-75
2023/04/17 05:23:53;;;;;;;70.90;57.33;;;7.70;99.90;;;;;;4968577;28;20042;-75
2023/04/17 05:26:21;;;;;;;69.93;57.28;;;7.60;99.90;;;;;;5043008;28;20162;-74
2023/04/17 05:28:47;;;;;;;65.72;54.63;;;7.70;99.90;;;;;;5071629;28;20412;-75
2023/04/17 05:31:13;;;;;;;67.97;56.03;;;7.70;99.90;;;;;;5009709;28;20046;-75
2023/04/17 05:33:38;;;;;;;69.40;56.08;;;7.70;99.90;;;;;;4963783;28;20035;-74
2023/04/17 05:36:05;;;;;;;69.90;57.45;;;7.80;99.90;;;;;;4977503;28;20091;-74
2023/04/17 05:38:30;;;;;;;70.15;57.33;;;7.70;99.90;;;;;;5005743;28;20042;-74
2023/04/17 05:40:56;;;;;;;79.68;62.03;;;7.70;99.90;;;;;;4987244;28;20042;-72
2023/04/17 05:43:21;;;;;;;72.03;57.47;;;7.70;99.90;;;;;;4961899;28;20051;-72
2023/04/17 05:45:47;;;;;;;71.05;57.65;;;7.70;99.90;;;;;;4968825;28;20077;-73
2023/04/17 05:48:13;;;;;;;71.95;58.20;;;7.70;99.90;;;;;;4968668;28;20039;-72
2023/04/17 05:50:39;;;;;;;64.32;53.67;;;7.70;99.90;;;;;;4969634;28;20035;-72
2023/04/17 05:53:05;;;;;;;60.88;50.72;;;7.70;99.90;;;;;;4953709;28;20486;-72
2023/04/17 05:55:31;;;;;;;58.90;50.72;;;7.70;99.90;;;;;;4969261;28;20043;-73
2023/04/17 05:57:56;;;;;;;57.88;50.05;;;7.80;99.90;;;;;;4962301;28;20050;-72
2023/04/17 06:00:23;;;;;;;62.72;51.90;;;7.70;99.90;;;;;;4968794;28;20513;-73
2023/04/17 06:02:49;;;;;;;61.88;51.42;;;7.70;99.90;;;;;;4972759;28;20043;-73
2023/04/17 06:05:16;;;;;;;63.65;52.05;;;7.70;99.90;;;;;;5010784;28;20036;-73
2023/04/17 06:07:42;;;;;;;64.35;52.65;;;7.70;99.90;;;;;;4969230;28;20508;-73
2023/04/17 06:10:08;;;;;;;67.55;55.45;;;7.70;99.90;;;;;;4979406;28;20041;-73
2023/04/17 06:12:35;;;;;;;66.40;54.65;;;7.80;99.90;;;;;;4964950;28;20031;-73
2023/04/17 06:15:00;;;;;;;62.03;52.75;;;7.70;99.90;;;;;;4964428;28;20030;-73
2023/04/17 06:17:26;;;;;;;68.50;55.33;;;7.70;99.90;;;;;;4951814;28;20043;-73
2023/04/17 06:19:51;;;;;;;68.22;54.72;;;7.70;99.90;;;;;;4968285;28;20038;-74
2023/04/17 06:22:17;;;;;;;59.28;48.35;;;7.80;99.90;;;;;;4994712;28;20460;-74
2023/04/17 06:24:43;;;;;;;57.38;48.85;;;7.80;99.90;;;;;;4968904;28;20494;-74
2023/04/17 06:27:09;;;;;;;55.95;48.58;;;7.90;99.90;;;;;;4953174;28;20051;-74
2023/04/17 06:29:35;;;;;;;61.38;50.95;;;7.80;99.90;;;;;;4969130;28;20125;-74
2023/04/17 06:32:00;;;;;;;62.45;51.47;;;7.70;99.90;;;;;;4969077;28;20536;-74
2023/04/17 06:34:26;;;;;;;59.40;51.65;;;7.70;99.90;;;;;;4968747;28;20035;-74
2023/04/17 06:36:52;;;;;;;60.38;49.95;;;7.70;99.90;;;;;;4968867;28;20457;-74
2023/04/17 06:39:17;;;;;;;59.40;49.55;;;7.70;99.90;;;;;;4969220;28;20046;-74
2023/04/17 06:41:43;;;;;;;62.58;52.67;;;7.70;99.90;;;;;;4969002;28;20406;-74
2023/04/17 06:44:08;;;;;;;57.78;47.95;;;7.70;99.90;;;;;;4968600;28;20038;-74
2023/04/17 06:46:34;;;;;;;55.70;47.83;;;7.80;99.90;;;;;;4952794;28;20078;-74
2023/04/17 06:49:01;;;;;;;54.75;48.78;;;7.80;99.90;;;;;;4970018;28;20126;-74
2023/04/17 06:51:28;;;;;;;51.13;44.92;;;7.80;99.90;;;;;;4967912;28;20097;-75
2023/04/17 06:53:53;;;;;;;52.75;46.15;;;7.90;99.90;;;;;;4968560;28;20053;-75
2023/04/17 06:56:19;;;;;;;52.38;46.45;;;8.00;99.90;;;;;;4968686;28;20051;-74
2023/04/17 06:58:45;;;;;;;50.03;44.63;;;8.00;99.90;;;;;;4952884;28;20038;-74
2023/04/17 07:01:12;;;;;;;49.78;44.45;;;8.10;99.90;;;;;;4953110;28;20402;-74
2023/04/17 07:03:39;;;;;;;50.72;44.67;;;8.10;99.90;;;;;;4952312;28;20051;-74
2023/04/17 07:06:04;;;;;;;50.83;45.33;;;8.10;99.90;;;;;;4952679;28;20121;-74
2023/04/17 07:08:30;;;;;;;51.90;46.10;;;8.00;99.90;;;;;;4968993;28;20130;-74
2023/04/17 07:10:56;;;;;;;54.40;46.80;;;8.00;99.90;;;;;;4952544;28;20039;-74
2023/04/17 07:13:21;;;;;;;53.85;47.95;;;8.00;99.90;;;;;;4969753;28;20501;-74
2023/04/17 07:15:52;;;;;;;55.13;48.58;;;8.10;99.90;;;;;;4969757;28;20495;-74
2023/04/17 07:18:18;;;;;;;57.13;48.08;;;8.10;99.90;;;;;;4968332;28;20050;-74
2023/04/17 07:20:43;;;;;;;51.55;46.08;;;8.20;99.90;;;;;;4968733;28;20035;-74
2023/04/17 07:23:09;;;;;;;51.83;46.53;;;8.20;99.90;;;;;;4969837;28;20053;-74
2023/04/17 07:25:35;;;;;;;49.47;44.30;;;8.30;99.90;;;;;;4952372;28;20429;-74
2023/04/17 07:28:01;;;;;;;50.10;44.83;;;8.50;99.90;;;;;;4968386;28;20039;-74
2023/04/17 07:30:27;;;;;;;48.47;43.53;;;8.60;99.90;;;;;;4968250;28;20064;-74
2023/04/17 07:32:53;;;;;;;49.35;44.35;;;8.70;99.90;;;;;;4968507;28;20046;-74
2023/04/17 07:35:18;;;;;;;47.55;42.55;;;8.80;99.90;;;;;;4968654;28;20043;-74
2023/04/17 07:37:44;;;;;;;50.38;45.20;;;8.80;99.90;;;;;;4968425;28;20047;-74
2023/04/17 07:40:10;;;;;;;50.35;45.28;;;8.80;99.90;;;;;;4952273;28;20039;-74
2023/04/17 07:42:36;;;;;;;46.97;42.30;;;8.90;99.90;;;;;;4968274;28;20046;-74
2023/04/17 07:45:02;;;;;;;48.72;43.55;;;9.00;99.90;;;;;;4967940;28;20042;-74
2023/04/17 07:47:29;;;;;;;47.45;42.72;;;9.10;99.90;;;;;;4951931;28;20425;-74
2023/04/17 07:49:55;;;;;;;45.65;41.03;;;9.20;99.90;;;;;;4968179;28;20540;-74
2023/04/17 07:52:20;;;;;;;47.08;42.20;;;9.20;99.90;;;;;;4952034;28;20046;-74
2023/04/17 07:54:46;;;;;;;45.40;40.80;;;9.30;99.90;;;;;;4968047;28;20493;-74
2023/04/17 07:57:13;;;;;;;47.13;42.42;;;9.40;99.90;;;;;;4967894;28;20053;-74
2023/04/17 07:59:39;;;;;;;43.58;39.15;;;9.50;99.90;;;;;;4967996;28;20078;-74
2023/04/17 08:02:05;;;;;;;44.78;40.38;;;9.50;99.90;;;;;;4968235;28;20139;-74
2023/04/17 08:04:31;;;;;;;44.90;40.47;;;9.50;99.90;;;;;;4972330;28;20043;-74
2023/04/17 08:06:57;;;;;;;48.13;43.45;;;9.50;99.90;;;;;;4955101;28;20053;-74
2023/04/17 08:09:23;;;;;;;44.08;39.70;;;9.70;99.90;;;;;;4955297;28;20039;-74
2023/04/17 08:11:48;;;;;;;45.72;41.22;;;9.80;99.90;;;;;;4971443;28;20035;-74
2023/04/17 08:14:16;;;;;;;43.38;39.28;;;9.90;99.90;;;;;;4954831;28;20120;-74
2023/04/17 08:16:42;;;;;;;44.67;40.28;;;9.90;99.90;;;;;;4970856;28;20511;-74
2023/04/17 08:19:07;;;;;;;40.67;36.67;;;10.00;99.90;;;;;;4955415;28;20039;-74
2023/04/17 08:21:33;;;;;;;42.78;38.47;;;10.20;99.90;;;;;;4955345;28;20129;-74
2023/04/17 08:23:58;;;;;;;40.20;36.35;;;10.30;99.90;;;;;;4954922;28;20119;-74
2023/04/17 08:26:24;;;;;;;41.50;37.60;;;10.50;99.90;;;;;;5055669;28;20039;-74
2023/04/17 08:28:52;;;;;;;42.35;38.33;;;10.80;99.90;;;;;;5055855;28;20043;-74
2023/04/17 08:31:18;;;;;;;39.92;36.20;;;10.90;99.90;;;;;;4970785;28;20043;-74
2023/04/17 08:33:43;;;;;;;42.35;38.08;;;10.80;99.90;;;;;;4954815;28;20112;-75
2023/04/17 08:36:09;;;;;;;42.20;37.90;;;10.80;99.90;;;;;;5055599;28;20031;-74
2023/04/17 08:38:35;;;;;;;40.65;36.67;;;10.80;99.90;;;;;;4971113;28;20065;-74
2023/04/17 08:41:08;;;;;;;41.58;37.58;;;10.90;99.90;;;;;;4954519;28;20031;-74
2023/04/17 08:43:35;;;;;;;39.40;35.50;;;11.10;99.90;;;;;;4954508;28;20082;-74
2023/04/17 08:46:03;;;;;;;39.40;35.58;;;11.30;99.90;;;;;;4954605;28;20510;-74
2023/04/17 08:48:30;;;;;;;38.88;35.08;;;11.40;99.90;;;;;;4954685;28;20050;-75
2023/04/17 08:50:58;;;;;;;39.10;35.30;;;11.50;99.90;;;;;;4954978;28;20509;-74
2023/04/17 08:53:23;;;;;;;38.83;35.03;;;11.60;99.90;;;;;;4970413;28;20039;-74
2023/04/17 08:55:49;;;;;;;36.47;32.97;;;11.50;99.90;;;;;;4970966;28;20058;-74
2023/04/17 08:58:15;;;;;;;36.78;33.15;;;11.70;99.90;;;;;;4970469;28;20126;-74
2023/04/17 09:00:42;;;;;;;37.20;33.60;;;12.00;99.90;;;;;;4971933;28;20038;-75
2023/04/17 09:03:10;;;;;;;38.58;34.92;;;12.20;99.90;;;;;;4954512;28;20042;-75
2023/04/17 09:05:38;;;;;;;35.58;32.28;;;12.10;99.90;;;;;;4970215;28;20057;-75
2023/04/17 09:08:14;;;;;;;35.42;32.03;;;12.30;99.90;;;;;;4954222;28;20043;-75
2023/04/17 09:10:51;;;;;;;36.45;32.97;;;12.40;99.90;;;;;;4970565;28;20050;-75
2023/04/17 09:13:19;;;;;;;38.30;34.70;;;12.40;99.90;;;;;;4970378;28;20092;-74
2023/04/17 09:15:46;;;;;;;38.60;35.00;;;12.30;99.90;;;;;;4970705;28;20043;-75
2023/04/17 09:18:29;;;;;;;38.20;34.50;;;12.30;99.90;;;;;;4970576;28;20522;-75
2023/04/17 09:20:59;;;;;;;38.00;34.38;;;12.30;99.90;;;;;;4970301;28;20441;-75
2023/04/17 09:23:26;;;;;;;40.42;36.72;;;12.40;99.90;;;;;;4971213;28;20050;-74
2023/04/17 09:26:12;;;;;;;38.15;34.55;;;12.60;99.90;;;;;;4953978;28;20034;-75
2023/04/17 09:28:38;;;;;;;35.65;32.28;;;13.00;99.90;;;;;;4971367;28;20043;-74
2023/04/17 09:31:21;;;;;;;35.25;31.95;;;13.60;99.90;;;;;;4970077;28;20406;-75
2023/04/17 09:33:57;;;;;;;36.60;33.10;;;13.60;99.90;;;;;;4969949;28;20549;-75
2023/04/17 09:36:22;;;;;;;37.63;34.28;;;13.60;99.90;;;;;;4970092;28;20051;-75
2023/04/17 09:38:49;;;;;;;36.85;33.33;;;13.70;99.90;;;;;;4970136;28;20520;-74
2023/04/17 09:41:26;;;;;;;36.85;33.45;;;13.80;99.90;;;;;;4970299;28;20126;-75
2023/04/17 09:43:53;;;;;;;36.22;32.83;;;13.90;99.90;;;;;;4970094;28;20042;-75
2023/04/17 09:46:39;;;;;;;37.28;33.97;;;14.00;99.90;;;;;;5054750;28;20039;-75
2023/04/17 09:49:10;;;;;;;38.50;35.03;;;14.30;99.90;;;;;;4970125;28;20503;-75
2023/04/17 09:51:35;;;;;;;37.28;34.05;;;14.60;99.90;;;;;;4969691;28;20050;-75
2023/04/17 09:54:05;;;;;;;35.95;32.75;;;15.10;99.90;;;;;;4969424;28;20407;-75
2023/04/17 09:56:32;;;;;;;37.10;33.78;;;15.70;99.90;;;;;;4969780;28;20039;-75
2023/04/17 09:59:04;;;;;;;36.72;33.33;;;16.20;99.90;;;;;;4971126;28;20068;-75
2023/04/17 10:01:34;;;;;;;36.60;33.28;;;16.00;99.90;;;;;;4969734;28;20491;-75
2023/04/17 10:04:01;;;;;;;36.22;33.00;;;16.10;99.90;;;;;;4969630;28;20047;-75
2023/04/17 10:06:29;;;;;;;37.38;33.97;;;16.20;99.90;;;;;;4970667;28;20047;-75
2023/04/17 10:08:55;;;;;;;35.80;32.42;;;16.20;99.90;;;;;;4969536;28;20092;-75
2023/04/17 10:11:24;;;;;;;37.55;34.05;;;16.20;99.90;;;;;;4969429;28;20039;-75
2023/04/17 10:14:21;;;;;;;37.10;33.70;;;16.60;99.90;;;;;;4953234;28;20034;-75
2023/04/17 10:16:47;;;;;;;36.20;32.83;;;16.50;99.90;;;;;;4946858;28;20125;-75
2023/04/17 10:19:30;;;;;;;38.08;34.60;;;16.30;99.90;;;;;;4969341;28;20080;-75
2023/04/17 10:22:14;;;;;;;36.80;33.55;;;16.20;99.90;;;;;;5053862;28;20043;-75
2023/04/17 10:24:44;;;;;;;34.10;30.85;;;16.20;99.90;;;;;;4953113;28;20046;-75
2023/04/17 10:27:25;;;;;;;35.85;32.65;;;16.20;99.90;;;;;;4953410;28;20571;-75
2023/04/17 10:29:55;;;;;;;35.45;32.28;;;16.30;99.90;;;;;;4953220;28;20054;-75
2023/04/17 10:32:25;;;;;;;36.17;32.90;;;16.40;99.90;;;;;;5037443;28;20077;-75
2023/04/17 10:34:52;;;;;;;37.17;33.78;;;16.50;99.90;;;;;;4969345;28;20390;-75
2023/04/17 10:37:21;;;;;;;35.03;31.83;;;16.60;99.90;;;;;;4952900;28;20043;-75
2023/04/17 10:39:58;;;;;;;34.63;31.60;;;16.80;99.90;;;;;;4970352;28;20038;-75
2023/04/17 10:42:24;;;;;;;33.55;30.45;;;17.20;99.90;;;;;;4952797;28;20087;-75
2023/04/17 10:44:55;;;;;;;34.80;31.67;;;17.10;99.90;;;;;;4968961;28;20034;-75
2023/04/17 10:47:21;;;;;;;35.33;32.25;;;16.60;99.90;;;;;;4968902;28;20043;-75
2023/04/17 10:49:52;;;;;;;31.80;29.10;;;16.80;99.90;;;;;;5053591;28;20096;-75
2023/04/17 10:52:34;;;;;;;30.42;27.73;;;17.10;99.90;;;;;;4952771;28;20118;-75
2023/04/17 10:55:10;;;;;;;30.75;28.00;;;17.60;91.90;;;;;;4952574;28;20447;-75
2023/04/17 10:58:01;;;;;;;29.30;26.75;;;17.60;92.30;;;;;;4968654;28;20042;-75
2023/04/17 11:00:38;;;;;;;27.40;25.00;;;17.50;93.20;;;;;;4961980;28;20054;-75
2023/04/17 11:03:05;;;;;;;27.95;25.58;;;17.20;90.60;;;;;;4968844;28;20043;-75
2023/04/17 11:05:31;;;;;;;27.73;25.35;;;16.90;94.10;;;;;;4968404;28;20495;-75
2023/04/17 11:07:57;;;;;;;22.38;20.38;;;16.70;98.60;;;;;;5053425;28;20039;-75
2023/04/17 11:10:23;;;;;;;22.58;20.67;;;16.80;85.30;;;;;;4968687;28;20092;-75
2023/04/17 11:12:55;;;;;;;23.48;21.55;;;16.80;81.20;;;;;;4969911;28;20118;-75
2023/04/17 11:15:33;;;;;;;22.27;20.27;;;16.70;87.90;;;;;;5053036;28;20042;-74
2023/04/17 11:17:59;;;;;;;22.92;20.92;;;17.00;81.70;;;;;;4968560;28;20074;-75
2023/04/17 11:20:30;;;;;;;22.05;20.25;;;16.70;83.30;;;;;;4952705;28;20035;-75
2023/04/17 11:23:00;;;;;;;22.83;20.95;;;16.80;86.10;;;;;;4952606;28;20529;-75
2023/04/17 11:25:30;;;;;;;25.08;22.70;;;17.30;81.00;;;;;;4968342;28;20054;-75
2023/04/17 11:28:01;;;;;;;22.35;20.52;;;17.50;84.50;;;;;;4952366;28;20039;-75
2023/04/17 11:30:30;;;;;;;23.75;21.58;;;17.30;85.00;;;;;;4952299;28;20091;-75
2023/04/17 11:32:57;;;;;;;20.77;18.92;;;16.80;86.60;;;;;;4969705;28;20042;-75
2023/04/17 11:35:27;;;;;;;21.45;19.52;;;16.70;85.40;;;;;;4968045;28;20047;-74
2023/04/17 11:38:13;;;;;;;21.60;19.80;;;17.20;83.60;;;;;;4970086;28;20410;-75
2023/04/17 11:40:43;;;;;;;20.58;18.85;;;17.20;85.90;;;;;;4971675;28;20047;-74
2023/04/17 11:43:11;;;;;;;19.05;17.30;;;17.20;89.40;;;;;;4955582;28;20042;-75
2023/04/17 11:45:39;;;;;;;19.65;17.92;;;17.10;86.10;;;;;;4971488;28;20089;-75
2023/04/17 11:48:07;;;;;;;20.52;18.67;;;17.00;85.10;;;;;;4971627;28;20131;-75
2023/04/17 11:50:34;;;;;;;20.88;19.13;;;16.80;85.90;;;;;;4955678;28;20104;-75
2023/04/17 11:53:01;;;;;;;19.75;17.95;;;16.50;85.90;;;;;;4971773;28;20047;-75
2023/04/17 11:55:30;;;;;;;19.80;17.58;;;16.30;92.50;;;;;;4954897;28;20042;-74
2023/04/17 11:58:01;;;;;;;18.83;17.20;;;16.40;89.50;;;;;;4955601;28;20092;-75
2023/04/17 12:00:30;;;;;;;17.55;15.95;;;16.30;88.30;;;;;;4971904;28;20043;-74
2023/04/17 12:02:57;;;;;;;18.77;17.17;;;16.00;94.30;;;;;;4971842;28;20042;-75
2023/04/17 12:05:24;;;;;;;19.13;17.33;;;15.90;99.90;;;;;;5056180;28;20047;-75
2023/04/17 12:07:59;;;;;;;17.83;16.33;;;15.90;99.90;;;;;;4971208;28;20521;-75
2023/04/17 12:10:44;;;;;;;18.42;16.83;;;16.40;99.90;;;;;;4971664;28;20121;-75
2023/04/17 12:13:10;;;;;;;17.58;16.08;;;17.10;91.00;;;;;;4971569;28;20043;-75
2023/04/17 12:15:37;;;;;;;17.27;15.77;;;17.80;83.60;;;;;;4954985;28;20035;-75
2023/04/17 12:18:04;;;;;;;16.50;15.07;;;18.40;81.40;;;;;;4971172;28;20530;-75
2023/04/17 12:20:35;;;;;;;16.38;14.95;;;19.00;79.00;;;;;;4971160;28;20038;-75
2023/04/17 12:23:01;;;;;;;14.60;13.20;;;19.00;77.20;;;;;;4971156;28;20038;-75
2023/04/17 12:25:27;;;;;;;14.23;12.82;;;18.70;73.30;;;;;;4970895;28;20051;-75
2023/04/17 12:27:53;;;;;;;14.88;13.30;;;18.10;71.10;;;;;;5039373;28;20047;-75
2023/04/17 12:30:18;;;;;;;15.07;13.60;;;17.50;72.60;;;;;;4971663;28;20031;-75
2023/04/17 12:32:47;;;;;;;16.02;14.45;;;17.20;75.20;;;;;;4971443;28;20107;-75
2023/04/17 12:35:16;;;;;;;16.02;14.45;;;16.80;75.80;;;;;;4972641;28;20043;-75
2023/04/17 12:37:47;;;;;;;15.35;14.02;;;16.70;82.20;;;;;;4955375;28;20046;-75